sensor_id;sensor_type;location;lat;lon;timestamp;temperature;humidity
20182;DHT22;10250;50.756;6.172;2023-04-26T00:00:29;8.20;99.90
20182;DHT22;10250;50.756;6.172;2023-04-26T00:02:30;8.30;99.90
20182;DHT22;10250;50.756;6.172;2023-04-26T00:04:31;8.40;99.90
20182;DHT22;10250;50.756;6.172;2023-04-26T00:06:33;8.10;84.50
20182;DHT22;10250;50.756;6.172;2023-04-26T00:08:35;8.00;55.20
20182;DHT22;10250;50.756;6.172;2023-04-26T00:10:35;8.10;97.30
20182;DHT22;10250;50.756;6.172;2023-04-26T00:12:36;8.10;99.90
20182;DHT22;10250;50.756;6.172;2023-04-26T00:14:37;7.30;1.00
20182;DHT22;10250;50.756;6.172;2023-04-26T00:16:37;8.00;1.00
20182;DHT22;10250;50.756;6.172;2023-04-26T00:18:38;8.10;99.90
20182;DHT22;10250;50.756;6.172;2023-04-26T00:20:38;8.00;1.00
20182;DHT22;10250;50.756;6.172;2023-04-26T00:22:39;8.00;1.00
20182;DHT22;10250;50.756;6.172;2023-04-26T00:24:39;8.00;1.00
20182;DHT22;10250;50.756;6.172;2023-04-26T00:26:41;8.00;1.00
20182;DHT22;10250;50.756;6.172;2023-04-26T00:28:41;8.00;46.50
20182;DHT22;10250;50.756;6.172;2023-04-26T00:30:42;8.00;99.90
20182;DHT22;10250;50.756;6.172;2023-04-26T00:32:47;7.90;99.90
20182;DHT22;10250;50.756;6.172;2023-04-26T00:34:47;7.70;99.90
20182;DHT22;10250;50.756;6.172;2023-04-26T00:36:48;6.90;99.90
20182;DHT22;10250;50.756;6.172;2023-04-26T00:38:48;7.70;1.00
20182;DHT22;10250;50.756;6.172;2023-04-26T00:40:49;7.80;91.80
20182;DHT22;10250;50.756;6.172;2023-04-26T00:42:56;7.70;99.90
20182;DHT22;10250;50.756;6.172;2023-04-26T00:44:57;7.80;99.90
20182;DHT22;10250;50.756;6.172;2023-04-26T00:46:57;7.70;9.70
20182;DHT22;10250;50.756;6.172;2023-04-26T00:48:58;7.60;1.00
20182;DHT22;10250;50.756;6.172;2023-04-26T00:50:59;7.60;1.00
20182;DHT22;10250;50.756;6.172;2023-04-26T00:53:01;7.60;88.50
20182;DHT22;10250;50.756;6.172;2023-04-26T00:55:03;7.70;99.90
20182;DHT22;10250;50.756;6.172;2023-04-26T00:59:06;6.90;1.00
20182;DHT22;10250;50.756;6.172;2023-04-26T01:01:07;7.20;1.00
20182;DHT22;10250;50.756;6.172;2023-04-26T01:03:07;7.30;1.00
20182;DHT22;10250;50.756;6.172;2023-04-26T01:05:08;7.40;1.00
20182;DHT22;10250;50.756;6.172;2023-04-26T01:07:09;7.40;1.00
20182;DHT22;10250;50.756;6.172;2023-04-26T01:09:11;7.40;1.00
20182;DHT22;10250;50.756;6.172;2023-04-26T01:11:14;7.50;1.00
20182;DHT22;10250;50.756;6.172;2023-04-26T01:13:15;7.50;1.00
20182;DHT22;10250;50.756;6.172;2023-04-26T01:15:16;7.50;1.00
20182;DHT22;10250;50.756;6.172;2023-04-26T01:17:17;7.40;1.00
20182;DHT22;10250;50.756;6.172;2023-04-26T01:19:19;7.40;1.00
20182;DHT22;10250;50.756;6.172;2023-04-26T01:21:22;7.40;1.00
20182;DHT22;10250;50.756;6.172;2023-04-26T01:23:22;7.30;1.00
20182;DHT22;10250;50.756;6.172;2023-04-26T01:25:23;7.30;1.00
20182;DHT22;10250;50.756;6.172;2023-04-26T01:27:23;7.40;1.00
20182;DHT22;10250;50.756;6.172;2023-04-26T01:29:24;7.20;1.00
20182;DHT22;10250;50.756;6.172;2023-04-26T01:31:26;7.30;1.00
20182;DHT22;10250;50.756;6.172;2023-04-26T01:33:26;7.20;1.00
20182;DHT22;10250;50.756;6.172;2023-04-26T01:35:27;7.10;1.00
20182;DHT22;10250;50.756;6.172;2023-04-26T01:37:28;7.00;1.00
20182;DHT22;10250;50.756;6.172;2023-04-26T01:39:28;7.20;1.00
20182;DHT22;10250;50.756;6.172;2023-04-26T01:41:29;7.10;1.00
20182;DHT22;10250;50.756;6.172;2023-04-26T01:43:29;7.20;1.00
20182;DHT22;10250;50.756;6.172;2023-04-26T01:45:30;7.20;1.00
20182;DHT22;10250;50.756;6.172;2023-04-26T01:47:30;6.90;1.00
20182;DHT22;10250;50.756;6.172;2023-04-26T01:49:31;7.00;1.00
20182;DHT22;10250;50.756;6.172;2023-04-26T01:51:32;7.30;1.00
20182;DHT22;10250;50.756;6.172;2023-04-26T01:53:33;7.10;1.00
20182;DHT22;10250;50.756;6.172;2023-04-26T01:55:34;7.00;1.00
20182;DHT22;10250;50.756;6.172;2023-04-26T01:57:34;7.00;1.00
20182;DHT22;10250;50.756;6.172;2023-04-26T01:59:35;7.00;1.00
20182;DHT22;10250;50.756;6.172;2023-04-26T02:01:35;7.00;13.30
20182;DHT22;10250;50.756;6.172;2023-04-26T02:03:36;7.20;32.80
20182;DHT22;10250;50.756;6.172;2023-04-26T02:05:37;7.10;1.00
20182;DHT22;10250;50.756;6.172;2023-04-26T02:07:37;7.00;1.00
20182;DHT22;10250;50.756;6.172;2023-04-26T02:09:38;7.10;1.00
20182;DHT22;10250;50.756;6.172;2023-04-26T02:11:39;7.00;1.00
20182;DHT22;10250;50.756;6.172;2023-04-26T02:13:39;7.20;1.00
20182;DHT22;10250;50.756;6.172;2023-04-26T02:15:40;7.00;1.00
20182;DHT22;10250;50.756;6.172;2023-04-26T02:17:41;7.00;1.00
20182;DHT22;10250;50.756;6.172;2023-04-26T02:19:42;6.90;1.00
20182;DHT22;10250;50.756;6.172;2023-04-26T02:21:49;6.90;1.00
20182;DHT22;10250;50.756;6.172;2023-04-26T02:23:51;6.90;1.00
20182;DHT22;10250;50.756;6.172;2023-04-26T02:25:52;6.90;1.00
20182;DHT22;10250;50.756;6.172;2023-04-26T02:27:52;6.60;1.00
20182;DHT22;10250;50.756;6.172;2023-04-26T02:29:53;6.50;1.00
20182;DHT22;10250;50.756;6.172;2023-04-26T02:31:54;6.70;1.00
20182;DHT22;10250;50.756;6.172;2023-04-26T02:33:55;6.80;1.00
20182;DHT22;10250;50.756;6.172;2023-04-26T02:35:56;6.80;1.00
20182;DHT22;10250;50.756;6.172;2023-04-26T02:37:56;6.90;1.00
20182;DHT22;10250;50.756;6.172;2023-04-26T02:39:57;6.80;1.00
20182;DHT22;10250;50.756;6.172;2023-04-26T02:41:57;6.80;1.00
20182;DHT22;10250;50.756;6.172;2023-04-26T02:43:58;6.70;1.00
20182;DHT22;10250;50.756;6.172;2023-04-26T02:45:59;6.70;1.00
20182;DHT22;10250;50.756;6.172;2023-04-26T02:48:00;6.60;1.00
20182;DHT22;10250;50.756;6.172;2023-04-26T02:50:02;6.50;1.00
20182;DHT22;10250;50.756;6.172;2023-04-26T02:52:03;6.60;1.00
20182;DHT22;10250;50.756;6.172;2023-04-26T02:54:04;6.60;1.00
20182;DHT22;10250;50.756;6.172;2023-04-26T02:56:05;6.70;1.00
20182;DHT22;10250;50.756;6.172;2023-04-26T02:58:06;6.60;1.00
20182;DHT22;10250;50.756;6.172;2023-04-26T03:00:07;6.60;1.00
20182;DHT22;10250;50.756;6.172;2023-04-26T03:02:08;6.60;1.00
20182;DHT22;10250;50.756;6.172;2023-04-26T03:04:08;6.60;1.00
20182;DHT22;10250;50.756;6.172;2023-04-26T03:06:09;6.60;1.00
20182;DHT22;10250;50.756;6.172;2023-04-26T03:08:10;6.60;1.00
20182;DHT22;10250;50.756;6.172;2023-04-26T03:10:10;6.70;1.00
20182;DHT22;10250;50.756;6.172;2023-04-26T03:12:12;6.60;1.00
20182;DHT22;10250;50.756;6.172;2023-04-26T03:14:12;6.40;1.00
20182;DHT22;10250;50.756;6.172;2023-04-26T03:16:13;6.50;1.00
20182;DHT22;10250;50.756;6.172;2023-04-26T03:18:13;6.50;1.00
20182;DHT22;10250;50.756;6.172;2023-04-26T03:20:14;6.50;1.00
20182;DHT22;10250;50.756;6.172;2023-04-26T03:22:14;6.40;1.00
20182;DHT22;10250;50.756;6.172;2023-04-26T03:24:15;6.30;1.00
20182;DHT22;10250;50.756;6.172;2023-04-26T03:26:16;6.30;23.10
20182;DHT22;10250;50.756;6.172;2023-04-26T03:28:17;6.30;50.20
20182;DHT22;10250;50.756;6.172;2023-04-26T03:30:18;6.40;1.00
20182;DHT22;10250;50.756;6.172;2023-04-26T03:32:18;6.40;1.00
20182;DHT22;10250;50.756;6.172;2023-04-26T03:34:19;6.50;1.00
20182;DHT22;10250;50.756;6.172;2023-04-26T03:36:20;5.80;1.00
20182;DHT22;10250;50.756;6.172;2023-04-26T03:38:20;6.30;70.60
20182;DHT22;10250;50.756;6.172;2023-04-26T03:40:21;6.30;8.80
20182;DHT22;10250;50.756;6.172;2023-04-26T03:42:22;6.30;1.00
20182;DHT22;10250;50.756;6.172;2023-04-26T03:44:22;6.40;1.00
20182;DHT22;10250;50.756;6.172;2023-04-26T03:46:23;6.40;98.40
20182;DHT22;10250;50.756;6.172;2023-04-26T03:48:24;6.30;1.00
20182;DHT22;10250;50.756;6.172;2023-04-26T03:50:24;5.90;1.00
20182;DHT22;10250;50.756;6.172;2023-04-26T03:52:25;5.90;1.00
20182;DHT22;10250;50.756;6.172;2023-04-26T03:54:26;5.60;99.90
20182;DHT22;10250;50.756;6.172;2023-04-26T03:56:26;6.20;63.90
20182;DHT22;10250;50.756;6.172;2023-04-26T03:58:27;6.40;16.80
20182;DHT22;10250;50.756;6.172;2023-04-26T04:00:28;6.30;1.00
20182;DHT22;10250;50.756;6.172;2023-04-26T04:02:29;6.10;1.00
20182;DHT22;10250;50.756;6.172;2023-04-26T04:04:30;6.20;1.00
20182;DHT22;10250;50.756;6.172;2023-04-26T04:06:30;6.10;1.00
20182;DHT22;10250;50.756;6.172;2023-04-26T04:08:32;6.10;1.00
20182;DHT22;10250;50.756;6.172;2023-04-26T04:10:33;6.30;1.00
20182;DHT22;10250;50.756;6.172;2023-04-26T04:12:33;6.40;1.00
20182;DHT22;10250;50.756;6.172;2023-04-26T04:14:34;6.30;1.00
20182;DHT22;10250;50.756;6.172;2023-04-26T04:16:34;6.30;1.00
20182;DHT22;10250;50.756;6.172;2023-04-26T04:18:35;6.20;1.00
20182;DHT22;10250;50.756;6.172;2023-04-26T04:20:36;5.90;1.00
20182;DHT22;10250;50.756;6.172;2023-04-26T04:22:38;5.90;1.00
20182;DHT22;10250;50.756;6.172;2023-04-26T04:24:41;6.00;1.00
20182;DHT22;10250;50.756;6.172;2023-04-26T04:26:43;6.20;1.00
20182;DHT22;10250;50.756;6.172;2023-04-26T04:28:44;6.10;1.00
20182;DHT22;10250;50.756;6.172;2023-04-26T04:30:46;6.10;1.00
20182;DHT22;10250;50.756;6.172;2023-04-26T04:32:47;6.30;1.00
20182;DHT22;10250;50.756;6.172;2023-04-26T04:34:49;6.20;1.00
20182;DHT22;10250;50.756;6.172;2023-04-26T04:36:51;6.20;1.00
20182;DHT22;10250;50.756;6.172;2023-04-26T04:38:51;6.20;1.00
20182;DHT22;10250;50.756;6.172;2023-04-26T04:40:52;6.30;1.00
20182;DHT22;10250;50.756;6.172;2023-04-26T04:42:53;6.40;1.00
20182;DHT22;10250;50.756;6.172;2023-04-26T04:44:54;6.30;1.00
20182;DHT22;10250;50.756;6.172;2023-04-26T04:46:56;6.40;1.00
20182;DHT22;10250;50.756;6.172;2023-04-26T04:48:57;6.30;1.00
20182;DHT22;10250;50.756;6.172;2023-04-26T04:50:58;6.30;1.00
20182;DHT22;10250;50.756;6.172;2023-04-26T04:52:58;6.30;1.00
20182;DHT22;10250;50.756;6.172;2023-04-26T04:54:59;6.40;1.00
20182;DHT22;10250;50.756;6.172;2023-04-26T04:57:00;6.50;1.00
20182;DHT22;10250;50.756;6.172;2023-04-26T04:59:01;6.50;1.00
20182;DHT22;10250;50.756;6.172;2023-04-26T05:01:01;6.40;1.00
20182;DHT22;10250;50.756;6.172;2023-04-26T05:03:03;6.50;1.00
20182;DHT22;10250;50.756;6.172;2023-04-26T05:05:04;6.50;1.00
20182;DHT22;10250;50.756;6.172;2023-04-26T05:07:05;6.50;1.00
20182;DHT22;10250;50.756;6.172;2023-04-26T05:09:06;6.60;1.00
20182;DHT22;10250;50.756;6.172;2023-04-26T05:11:06;6.70;1.00
20182;DHT22;10250;50.756;6.172;2023-04-26T05:13:07;6.70;1.00
20182;DHT22;10250;50.756;6.172;2023-04-26T05:15:08;6.80;1.00
20182;DHT22;10250;50.756;6.172;2023-04-26T05:17:09;6.80;1.00
20182;DHT22;10250;50.756;6.172;2023-04-26T05:19:09;6.90;1.00
20182;DHT22;10250;50.756;6.172;2023-04-26T05:21:11;6.90;1.00
20182;DHT22;10250;50.756;6.172;2023-04-26T05:23:11;6.90;1.00
20182;DHT22;10250;50.756;6.172;2023-04-26T05:25:12;7.00;1.00
20182;DHT22;10250;50.756;6.172;2023-04-26T05:27:13;6.90;1.00
20182;DHT22;10250;50.756;6.172;2023-04-26T05:29:14;7.10;1.00
20182;DHT22;10250;50.756;6.172;2023-04-26T05:31:15;7.00;1.00
20182;DHT22;10250;50.756;6.172;2023-04-26T05:33:15;7.00;1.00
20182;DHT22;10250;50.756;6.172;2023-04-26T05:35:16;7.10;1.00
20182;DHT22;10250;50.756;6.172;2023-04-26T05:37:17;7.10;1.00
20182;DHT22;10250;50.756;6.172;2023-04-26T05:39:17;7.20;1.00
20182;DHT22;10250;50.756;6.172;2023-04-26T05:41:19;7.20;1.00
20182;DHT22;10250;50.756;6.172;2023-04-26T05:43:20;7.30;1.00
20182;DHT22;10250;50.756;6.172;2023-04-26T05:45:20;7.30;1.00
20182;DHT22;10250;50.756;6.172;2023-04-26T05:47:22;7.40;1.00
20182;DHT22;10250;50.756;6.172;2023-04-26T05:49:22;7.50;1.00
20182;DHT22;10250;50.756;6.172;2023-04-26T05:51:23;7.60;1.00
20182;DHT22;10250;50.756;6.172;2023-04-26T05:53:23;7.50;1.00
20182;DHT22;10250;50.756;6.172;2023-04-26T05:55:24;7.50;1.00
20182;DHT22;10250;50.756;6.172;2023-04-26T05:57:24;7.60;1.00
20182;DHT22;10250;50.756;6.172;2023-04-26T05:59:25;7.70;1.00
20182;DHT22;10250;50.756;6.172;2023-04-26T06:01:26;7.80;1.00
20182;DHT22;10250;50.756;6.172;2023-04-26T06:03:27;7.90;1.00
20182;DHT22;10250;50.756;6.172;2023-04-26T06:05:27;7.90;1.00
20182;DHT22;10250;50.756;6.172;2023-04-26T06:07:28;8.20;1.00
20182;DHT22;10250;50.756;6.172;2023-04-26T06:09:30;8.30;1.00
20182;DHT22;10250;50.756;6.172;2023-04-26T06:11:31;8.40;1.00
20182;DHT22;10250;50.756;6.172;2023-04-26T06:13:31;8.50;1.00
20182;DHT22;10250;50.756;6.172;2023-04-26T06:15:32;8.60;1.00
20182;DHT22;10250;50.756;6.172;2023-04-26T06:17:33;8.80;1.00
20182;DHT22;10250;50.756;6.172;2023-04-26T06:19:34;9.00;1.00
20182;DHT22;10250;50.756;6.172;2023-04-26T06:21:34;9.10;1.00
20182;DHT22;10250;50.756;6.172;2023-04-26T06:23:35;9.30;1.00
20182;DHT22;10250;50.756;6.172;2023-04-26T06:25:35;9.30;1.00
20182;DHT22;10250;50.756;6.172;2023-04-26T06:27:36;9.30;1.00
20182;DHT22;10250;50.756;6.172;2023-04-26T06:29:38;9.40;1.00
20182;DHT22;10250;50.756;6.172;2023-04-26T06:31:39;9.60;1.00
20182;DHT22;10250;50.756;6.172;2023-04-26T06:33:39;9.60;1.00
20182;DHT22;10250;50.756;6.172;2023-04-26T06:35:40;9.60;1.00
20182;DHT22;10250;50.756;6.172;2023-04-26T06:37:41;9.70;1.00
20182;DHT22;10250;50.756;6.172;2023-04-26T06:39:41;9.70;1.00
20182;DHT22;10250;50.756;6.172;2023-04-26T06:41:42;9.70;1.00
20182;DHT22;10250;50.756;6.172;2023-04-26T06:43:42;9.70;1.00
20182;DHT22;10250;50.756;6.172;2023-04-26T06:45:43;9.80;1.00
20182;DHT22;10250;50.756;6.172;2023-04-26T06:47:43;9.90;1.00
20182;DHT22;10250;50.756;6.172;2023-04-26T06:49:44;9.90;1.00
20182;DHT22;10250;50.756;6.172;2023-04-26T06:51:45;9.90;1.00
20182;DHT22;10250;50.756;6.172;2023-04-26T06:53:45;10.00;1.00
20182;DHT22;10250;50.756;6.172;2023-04-26T06:55:47;9.90;1.00
20182;DHT22;10250;50.756;6.172;2023-04-26T06:57:49;9.90;1.00
20182;DHT22;10250;50.756;6.172;2023-04-26T06:59:50;9.80;1.00
20182;DHT22;10250;50.756;6.172;2023-04-26T07:01:51;9.70;1.00
20182;DHT22;10250;50.756;6.172;2023-04-26T07:03:52;9.60;1.00
20182;DHT22;10250;50.756;6.172;2023-04-26T07:05:54;9.50;1.00
20182;DHT22;10250;50.756;6.172;2023-04-26T07:07:55;9.70;1.00
20182;DHT22;10250;50.756;6.172;2023-04-26T07:09:56;9.60;1.00
20182;DHT22;10250;50.756;6.172;2023-04-26T07:11:57;9.70;1.00
20182;DHT22;10250;50.756;6.172;2023-04-26T07:13:57;9.60;1.00
20182;DHT22;10250;50.756;6.172;2023-04-26T07:15:58;9.70;1.00
20182;DHT22;10250;50.756;6.172;2023-04-26T07:17:59;9.80;1.00
20182;DHT22;10250;50.756;6.172;2023-04-26T07:19:59;10.00;1.00
20182;DHT22;10250;50.756;6.172;2023-04-26T07:22:00;9.90;1.00
20182;DHT22;10250;50.756;6.172;2023-04-26T07:24:01;9.70;1.00
20182;DHT22;10250;50.756;6.172;2023-04-26T07:26:01;9.70;1.00
20182;DHT22;10250;50.756;6.172;2023-04-26T07:28:03;9.60;1.00
20182;DHT22;10250;50.756;6.172;2023-04-26T07:30:04;9.50;1.00
20182;DHT22;10250;50.756;6.172;2023-04-26T07:32:05;9.50;1.00
20182;DHT22;10250;50.756;6.172;2023-04-26T07:34:06;9.20;1.00
20182;DHT22;10250;50.756;6.172;2023-04-26T07:36:07;9.00;1.00
20182;DHT22;10250;50.756;6.172;2023-04-26T07:38:07;9.10;1.00
20182;DHT22;10250;50.756;6.172;2023-04-26T07:40:10;9.20;1.00
20182;DHT22;10250;50.756;6.172;2023-04-26T07:42:10;9.30;1.00
20182;DHT22;10250;50.756;6.172;2023-04-26T07:44:11;9.30;1.00
20182;DHT22;10250;50.756;6.172;2023-04-26T07:46:12;9.30;1.00
20182;DHT22;10250;50.756;6.172;2023-04-26T07:48:12;9.20;1.00
20182;DHT22;10250;50.756;6.172;2023-04-26T07:50:13;9.30;1.00
20182;DHT22;10250;50.756;6.172;2023-04-26T07:52:14;9.30;1.00
20182;DHT22;10250;50.756;6.172;2023-04-26T07:54:14;9.50;1.00
20182;DHT22;10250;50.756;6.172;2023-04-26T07:56:15;9.50;1.00
20182;DHT22;10250;50.756;6.172;2023-04-26T07:58:15;9.50;1.00
20182;DHT22;10250;50.756;6.172;2023-04-26T08:00:16;9.60;1.00
20182;DHT22;10250;50.756;6.172;2023-04-26T08:02:18;9.80;1.00
20182;DHT22;10250;50.756;6.172;2023-04-26T08:04:30;9.80;1.00
20182;DHT22;10250;50.756;6.172;2023-04-26T08:06:34;9.70;1.00
20182;DHT22;10250;50.756;6.172;2023-04-26T08:08:35;9.70;1.00
20182;DHT22;10250;50.756;6.172;2023-04-26T08:10:42;9.70;1.00
20182;DHT22;10250;50.756;6.172;2023-04-26T08:12:42;9.70;1.00
20182;DHT22;10250;50.756;6.172;2023-04-26T08:14:43;9.70;1.00
20182;DHT22;10250;50.756;6.172;2023-04-26T08:16:43;9.70;1.00
20182;DHT22;10250;50.756;6.172;2023-04-26T08:18:44;9.70;1.00
20182;DHT22;10250;50.756;6.172;2023-04-26T08:20:44;9.90;1.00
20182;DHT22;10250;50.756;6.172;2023-04-26T08:22:45;9.90;1.00
20182;DHT22;10250;50.756;6.172;2023-04-26T08:24:49;10.00;1.00
20182;DHT22;10250;50.756;6.172;2023-04-26T08:26:50;10.00;1.00
20182;DHT22;10250;50.756;6.172;2023-04-26T08:28:51;10.20;1.00
20182;DHT22;10250;50.756;6.172;2023-04-26T08:30:51;10.20;1.00
20182;DHT22;10250;50.756;6.172;2023-04-26T08:32:52;10.10;1.00
20182;DHT22;10250;50.756;6.172;2023-04-26T08:34:52;10.20;1.00
20182;DHT22;10250;50.756;6.172;2023-04-26T08:36:53;10.20;1.00
20182;DHT22;10250;50.756;6.172;2023-04-26T08:38:54;10.20;1.00
20182;DHT22;10250;50.756;6.172;2023-04-26T08:40:58;10.10;1.00
20182;DHT22;10250;50.756;6.172;2023-04-26T08:43:01;9.80;1.00
20182;DHT22;10250;50.756;6.172;2023-04-26T08:45:02;9.90;1.00
20182;DHT22;10250;50.756;6.172;2023-04-26T08:47:17;9.80;1.00
20182;DHT22;10250;50.756;6.172;2023-04-26T08:49:30;9.80;1.00
20182;DHT22;10250;50.756;6.172;2023-04-26T08:51:35;9.90;1.00
20182;DHT22;10250;50.756;6.172;2023-04-26T08:53:37;9.80;1.00
20182;DHT22;10250;50.756;6.172;2023-04-26T08:55:38;9.90;1.00
20182;DHT22;10250;50.756;6.172;2023-04-26T08:57:39;9.90;1.00
20182;DHT22;10250;50.756;6.172;2023-04-26T08:59:42;9.90;1.00
20182;DHT22;10250;50.756;6.172;2023-04-26T09:01:43;10.00;1.00
20182;DHT22;10250;50.756;6.172;2023-04-26T09:03:44;10.00;1.00
20182;DHT22;10250;50.756;6.172;2023-04-26T09:05:45;10.00;1.00
20182;DHT22;10250;50.756;6.172;2023-04-26T09:07:47;10.00;1.00
20182;DHT22;10250;50.756;6.172;2023-04-26T09:09:48;9.90;1.00
20182;DHT22;10250;50.756;6.172;2023-04-26T09:11:56;10.10;1.00
20182;DHT22;10250;50.756;6.172;2023-04-26T09:13:57;10.00;1.00
20182;DHT22;10250;50.756;6.172;2023-04-26T09:15:57;9.90;1.00
20182;DHT22;10250;50.756;6.172;2023-04-26T09:18:18;10.00;1.00
20182;DHT22;10250;50.756;6.172;2023-04-26T09:20:24;9.90;1.00
20182;DHT22;10250;50.756;6.172;2023-04-26T09:22:34;9.80;1.00
20182;DHT22;10250;50.756;6.172;2023-04-26T09:24:49;9.70;1.00
20182;DHT22;10250;50.756;6.172;2023-04-26T09:27:01;9.90;1.00
20182;DHT22;10250;50.756;6.172;2023-04-26T09:29:17;9.80;1.00
20182;DHT22;10250;50.756;6.172;2023-04-26T09:31:39;9.90;1.00
20182;DHT22;10250;50.756;6.172;2023-04-26T09:33:59;9.80;1.00
20182;DHT22;10250;50.756;6.172;2023-04-26T09:36:12;9.80;1.00
20182;DHT22;10250;50.756;6.172;2023-04-26T09:38:16;10.00;1.00
20182;DHT22;10250;50.756;6.172;2023-04-26T09:40:18;10.10;1.00
20182;DHT22;10250;50.756;6.172;2023-04-26T09:42:19;10.30;1.00
20182;DHT22;10250;50.756;6.172;2023-04-26T09:44:21;10.20;1.00
20182;DHT22;10250;50.756;6.172;2023-04-26T09:46:25;10.30;1.00
20182;DHT22;10250;50.756;6.172;2023-04-26T09:50:30;10.50;1.00
20182;DHT22;10250;50.756;6.172;2023-04-26T09:52:41;10.60;1.00
20182;DHT22;10250;50.756;6.172;2023-04-26T09:54:51;10.70;1.00
20182;DHT22;10250;50.756;6.172;2023-04-26T09:56:59;10.70;1.00
20182;DHT22;10250;50.756;6.172;2023-04-26T09:59:00;10.60;1.00
20182;DHT22;10250;50.756;6.172;2023-04-26T10:01:04;10.70;1.00
20182;DHT22;10250;50.756;6.172;2023-04-26T10:03:07;10.70;1.00
20182;DHT22;10250;50.756;6.172;2023-04-26T10:05:08;10.80;1.00
20182;DHT22;10250;50.756;6.172;2023-04-26T10:07:09;10.90;1.00
20182;DHT22;10250;50.756;6.172;2023-04-26T10:09:10;10.90;1.00
20182;DHT22;10250;50.756;6.172;2023-04-26T10:11:11;10.90;1.00
20182;DHT22;10250;50.756;6.172;2023-04-26T10:13:14;11.00;1.00
20182;DHT22;10250;50.756;6.172;2023-04-26T10:15:17;11.00;1.00
20182;DHT22;10250;50.756;6.172;2023-04-26T10:17:18;11.00;1.00
20182;DHT22;10250;50.756;6.172;2023-04-26T10:19:20;10.90;1.00
20182;DHT22;10250;50.756;6.172;2023-04-26T10:21:28;10.90;1.00
20182;DHT22;10250;50.756;6.172;2023-04-26T10:23:31;10.80;1.00
20182;DHT22;10250;50.756;6.172;2023-04-26T10:25:37;10.90;1.00
20182;DHT22;10250;50.756;6.172;2023-04-26T10:34:20;10.90;1.00
20182;DHT22;10250;50.756;6.172;2023-04-26T10:36:20;10.80;1.00
20182;DHT22;10250;50.756;6.172;2023-04-26T10:38:21;10.70;1.00
20182;DHT22;10250;50.756;6.172;2023-04-26T10:40:23;10.90;1.00
20182;DHT22;10250;50.756;6.172;2023-04-26T10:42:25;10.80;1.00
20182;DHT22;10250;50.756;6.172;2023-04-26T10:44:41;11.00;1.00
20182;DHT22;10250;50.756;6.172;2023-04-26T10:46:49;10.90;1.00
20182;DHT22;10250;50.756;6.172;2023-04-26T10:48:50;10.70;1.00
20182;DHT22;10250;50.756;6.172;2023-04-26T10:55:03;11.20;1.00
20182;DHT22;10250;50.756;6.172;2023-04-26T10:57:05;11.20;1.00
20182;DHT22;10250;50.756;6.172;2023-04-26T10:59:19;11.10;1.00
20182;DHT22;10250;50.756;6.172;2023-04-26T11:01:19;11.00;1.00
20182;DHT22;10250;50.756;6.172;2023-04-26T11:03:21;10.80;1.00
20182;DHT22;10250;50.756;6.172;2023-04-26T11:07:42;10.80;1.00
20182;DHT22;10250;50.756;6.172;2023-04-26T11:09:48;11.00;1.00
20182;DHT22;10250;50.756;6.172;2023-04-26T11:11:52;10.90;1.00
20182;DHT22;10250;50.756;6.172;2023-04-26T11:13:52;11.10;1.00
20182;DHT22;10250;50.756;6.172;2023-04-26T11:15:58;11.00;1.00
20182;DHT22;10250;50.756;6.172;2023-04-26T11:18:03;10.90;1.00
20182;DHT22;10250;50.756;6.172;2023-04-26T11:20:08;10.80;1.00
20182;DHT22;10250;50.756;6.172;2023-04-26T11:22:09;10.90;1.00
20182;DHT22;10250;50.756;6.172;2023-04-26T11:24:10;10.80;1.00
20182;DHT22;10250;50.756;6.172;2023-04-26T11:26:14;10.60;1.00
20182;DHT22;10250;50.756;6.172;2023-04-26T11:28:14;10.70;1.00
20182;DHT22;10250;50.756;6.172;2023-04-26T11:30:17;10.70;1.00
20182;DHT22;10250;50.756;6.172;2023-04-26T11:32:19;10.70;1.00
20182;DHT22;10250;50.756;6.172;2023-04-26T11:34:32;10.70;1.00
20182;DHT22;10250;50.756;6.172;2023-04-26T11:36:37;10.70;1.00
20182;DHT22;10250;50.756;6.172;2023-04-26T11:38:38;10.90;1.00
20182;DHT22;10250;50.756;6.172;2023-04-26T11:40:39;11.10;1.00
20182;DHT22;10250;50.756;6.172;2023-04-26T11:42:43;11.00;1.00
20182;DHT22;10250;50.756;6.172;2023-04-26T11:44:43;11.10;1.00
20182;DHT22;10250;50.756;6.172;2023-04-26T11:46:48;11.00;1.00
20182;DHT22;10250;50.756;6.172;2023-04-26T11:48:49;10.90;1.00
20182;DHT22;10250;50.756;6.172;2023-04-26T11:50:49;10.90;1.00
20182;DHT22;10250;50.756;6.172;2023-04-26T11:52:50;11.00;1.00
20182;DHT22;10250;50.756;6.172;2023-04-26T11:55:06;11.20;1.00
20182;DHT22;10250;50.756;6.172;2023-04-26T11:57:14;11.20;1.00
20182;DHT22;10250;50.756;6.172;2023-04-26T11:59:26;11.10;1.00
20182;DHT22;10250;50.756;6.172;2023-04-26T12:01:28;11.00;1.00
20182;DHT22;10250;50.756;6.172;2023-04-26T12:03:35;11.00;1.00
20182;DHT22;10250;50.756;6.172;2023-04-26T12:05:36;11.00;1.00
20182;DHT22;10250;50.756;6.172;2023-04-26T12:07:37;10.90;1.00
20182;DHT22;10250;50.756;6.172;2023-04-26T12:09:40;10.80;1.00
20182;DHT22;10250;50.756;6.172;2023-04-26T12:11:47;10.80;1.00
20182;DHT22;10250;50.756;6.172;2023-04-26T12:13:48;11.10;1.00
20182;DHT22;10250;50.756;6.172;2023-04-26T12:15:49;11.20;1.00
20182;DHT22;10250;50.756;6.172;2023-04-26T12:17:52;11.30;1.00
20182;DHT22;10250;50.756;6.172;2023-04-26T12:19:53;11.10;1.00
20182;DHT22;10250;50.756;6.172;2023-04-26T12:21:55;11.00;1.00
20182;DHT22;10250;50.756;6.172;2023-04-26T12:23:55;10.70;1.00
20182;DHT22;10250;50.756;6.172;2023-04-26T12:25:56;10.50;1.00
20182;DHT22;10250;50.756;6.172;2023-04-26T12:28:03;10.60;1.00
20182;DHT22;10250;50.756;6.172;2023-04-26T12:30:05;10.80;1.00
20182;DHT22;10250;50.756;6.172;2023-04-26T12:32:06;10.90;1.00
20182;DHT22;10250;50.756;6.172;2023-04-26T12:34:07;10.70;1.00
20182;DHT22;10250;50.756;6.172;2023-04-26T12:36:08;10.60;1.00
20182;DHT22;10250;50.756;6.172;2023-04-26T12:38:09;10.80;1.00
20182;DHT22;10250;50.756;6.172;2023-04-26T12:40:10;11.00;1.00
20182;DHT22;10250;50.756;6.172;2023-04-26T12:42:11;11.20;1.00
20182;DHT22;10250;50.756;6.172;2023-04-26T12:44:12;11.20;1.00
20182;DHT22;10250;50.756;6.172;2023-04-26T12:46:13;11.00;1.00
20182;DHT22;10250;50.756;6.172;2023-04-26T12:48:14;11.00;1.00
20182;DHT22;10250;50.756;6.172;2023-04-26T12:50:15;11.00;1.00
20182;DHT22;10250;50.756;6.172;2023-04-26T12:52:16;11.00;1.00
20182;DHT22;10250;50.756;6.172;2023-04-26T12:54:16;11.10;1.00
20182;DHT22;10250;50.756;6.172;2023-04-26T12:56:17;11.10;1.00
20182;DHT22;10250;50.756;6.172;2023-04-26T12:58:18;10.70;1.00
20182;DHT22;10250;50.756;6.172;2023-04-26T13:00:18;10.80;1.00
20182;DHT22;10250;50.756;6.172;2023-04-26T13:02:21;10.90;1.00
20182;DHT22;10250;50.756;6.172;2023-04-26T13:04:22;10.80;1.00
20182;DHT22;10250;50.756;6.172;2023-04-26T13:06:22;10.70;1.00
20182;DHT22;10250;50.756;6.172;2023-04-26T13:08:23;10.50;1.00
20182;DHT22;10250;50.756;6.172;2023-04-26T13:10:24;10.80;1.00
20182;DHT22;10250;50.756;6.172;2023-04-26T13:12:24;10.90;1.00
20182;DHT22;10250;50.756;6.172;2023-04-26T13:14:25;10.90;1.00
20182;DHT22;10250;50.756;6.172;2023-04-26T13:16:26;11.10;1.00
20182;DHT22;10250;50.756;6.172;2023-04-26T13:18:26;11.20;1.00
20182;DHT22;10250;50.756;6.172;2023-04-26T13:20:27;11.40;1.00
20182;DHT22;10250;50.756;6.172;2023-04-26T13:22:27;11.50;1.00
20182;DHT22;10250;50.756;6.172;2023-04-26T13:24:28;11.40;1.00
20182;DHT22;10250;50.756;6.172;2023-04-26T13:26:29;11.30;1.00